Time;durP1;ratioP1;P1;durP2;ratioP2;P2;SDS_P1;SDS_P2;PMS_P1;PMS_P2;Temp;Humidity;BMP_temperature;BMP_pressure;BME280_temperature;BME280_humidity;BME280_pressure;Samples;Min_cycle;Max_cycle;Signal;HPM_P1;HPM_P2
2022/05/08 00:00:15;;;;;;;4.10;3.70;;;15.20;99.90;;;;;;4926578;29;20249;-84
2022/05/08 00:02:40;;;;;;;6.17;4.30;;;15.10;99.90;;;;;;4928009;29;20275;-82
2022/05/08 00:05:09;;;;;;;8.57;3.70;;;15.10;99.90;;;;;;4926594;29;20262;-84
2022/05/08 00:07:34;;;;;;;4.63;4.00;;;15.20;99.90;;;;;;4927992;29;20188;-83
2022/05/08 00:10:00;;;;;;;4.87;4.37;;;15.10;99.90;;;;;;4926911;29;20206;-84
2022/05/08 00:12:26;;;;;;;5.87;4.07;;;15.10;99.90;;;;;;4929726;29;20218;-87
2022/05/08 00:14:51;;;;;;;3.60;3.30;;;15.10;99.90;;;;;;4928409;29;20234;-87
2022/05/08 00:17:17;;;;;;;3.83;3.53;;;15.10;99.90;;;;;;4930030;29;20393;-89
2022/05/08 00:19:44;;;;;;;5.60;5.20;;;15.10;99.90;;;;;;4927610;29;20202;-83
2022/05/08 00:22:11;;;;;;;5.77;4.10;;;15.10;99.90;;;;;;4927738;29;20256;-83
2022/05/08 00:24:37;;;;;;;4.53;4.13;;;15.10;99.90;;;;;;4925831;29;20191;-82
2022/05/08 00:27:03;;;;;;;3.63;3.40;;;15.00;99.90;;;;;;4927543;29;20707;-82
2022/05/08 00:29:29;;;;;;;4.23;3.93;;;15.10;99.90;;;;;;4925671;29;20191;-81
2022/05/08 00:31:54;;;;;;;4.37;3.57;;;15.10;99.90;;;;;;4929135;29;20194;-81
2022/05/08 00:34:20;;;;;;;5.87;3.33;;;15.10;99.90;;;;;;4930874;29;20191;-81
2022/05/08 00:36:45;;;;;;;3.63;3.33;;;15.00;99.90;;;;;;4939846;29;20207;-88
2022/05/08 00:39:12;;;;;;;3.33;3.13;;;15.00;99.90;;;;;;4935710;29;20659;-89
2022/05/08 00:41:37;;;;;;;4.67;2.93;;;15.00;99.90;;;;;;4932856;29;20282;-87
2022/05/08 00:44:03;;;;;;;3.60;3.30;;;14.90;99.90;;;;;;4938418;29;20234;-86
2022/05/08 00:46:29;;;;;;;4.97;2.90;;;15.00;99.90;;;;;;4930441;29;20206;-85
2022/05/08 00:48:55;;;;;;;2.90;2.67;;;15.00;99.90;;;;;;4931768;29;20203;-85
2022/05/08 00:51:21;;;;;;;2.50;2.30;;;14.90;99.90;;;;;;4929762;29;20230;-83
2022/05/08 00:53:51;;;;;;;2.30;2.10;;;14.90;99.90;;;;;;4924440;29;20253;-84
2022/05/08 00:56:18;;;;;;;2.37;1.70;;;14.80;99.90;;;;;;4929998;29;20239;-85
2022/05/08 00:58:47;;;;;;;2.07;1.97;;;14.80;99.90;;;;;;4931937;29;20198;-86
2022/05/08 01:01:13;;;;;;;2.83;2.63;;;14.80;99.80;;;;;;4930224;29;20261;-83
2022/05/08 01:03:40;;;;;;;2.10;2.00;;;14.70;99.70;;;;;;4931034;29;20187;-84
2022/05/08 01:06:08;;;;;;;2.80;1.90;;;14.70;99.90;;;;;;4930279;29;20199;-84
2022/05/08 01:08:36;;;;;;;2.40;2.20;;;14.60;99.90;;;;;;4931854;29;20203;-85
2022/05/08 01:11:03;;;;;;;1.83;1.73;;;14.60;99.90;;;;;;4929526;29;20757;-85
2022/05/08 01:13:29;;;;;;;1.67;1.57;;;14.50;99.90;;;;;;4931435;29;20191;-86
2022/05/08 01:15:55;;;;;;;2.07;1.90;;;14.50;99.90;;;;;;4929705;29;20203;-85
2022/05/08 01:18:21;;;;;;;2.00;1.90;;;14.40;99.90;;;;;;4916539;29;20199;-81
2022/05/08 01:20:47;;;;;;;2.27;2.00;;;14.30;99.90;;;;;;4929040;29;20697;-85
2022/05/08 01:23:15;;;;;;;2.10;2.00;;;14.20;99.90;;;;;;4927672;29;20202;-84
2022/05/08 01:25:46;;;;;;;2.70;2.50;;;14.10;99.90;;;;;;4922006;29;20213;-87
2022/05/08 01:28:12;;;;;;;2.57;2.37;;;14.00;99.90;;;;;;4930585;29;20223;-82
2022/05/08 01:30:43;;;;;;;3.27;2.37;;;13.90;99.90;;;;;;4928358;29;20721;-82
2022/05/08 01:33:09;;;;;;;3.13;2.83;;;13.90;99.90;;;;;;4930406;29;20195;-82
2022/05/08 01:35:35;;;;;;;5.03;2.50;;;13.80;99.90;;;;;;4929600;29;20238;-82
2022/05/08 01:38:01;;;;;;;3.43;2.70;;;13.80;99.90;;;;;;4929827;29;20191;-84
2022/05/08 01:40:28;;;;;;;4.67;3.20;;;13.60;99.90;;;;;;4929199;29;20305;-84
2022/05/08 01:42:53;;;;;;;3.13;2.90;;;13.50;99.90;;;;;;4930243;29;20684;-84
2022/05/08 01:45:19;;;;;;;4.57;3.10;;;13.50;99.90;;;;;;4928609;29;20191;-82
2022/05/08 01:50:29;;;;;;;6.27;3.43;;;13.40;99.90;;;;;;4921472;29;20696;-87
2022/05/08 01:52:54;;;;;;;3.03;2.83;;;13.40;99.90;;;;;;4931691;29;20206;-85
2022/05/08 01:55:20;;;;;;;4.27;3.33;;;13.40;99.90;;;;;;4929043;29;20210;-73
2022/05/08 01:57:45;;;;;;;3.33;3.03;;;13.30;99.90;;;;;;4929771;29;20230;-73
2022/05/08 02:00:11;;;;;;;4.80;3.33;;;13.30;99.90;;;;;;4927260;29;20210;-73
2022/05/08 02:02:37;;;;;;;3.87;3.03;;;13.30;99.90;;;;;;4929607;29;20240;-73
2022/05/08 02:05:03;;;;;;;5.60;3.00;;;13.40;99.90;;;;;;4927591;29;20202;-72
2022/05/08 02:07:29;;;;;;;3.03;2.83;;;13.40;99.90;;;;;;4929522;29;20297;-72
2022/05/08 02:09:58;;;;;;;3.80;3.50;;;13.40;99.90;;;;;;4927332;29;20244;-72
2022/05/08 02:12:23;;;;;;;3.60;3.30;;;13.40;99.90;;;;;;4929208;29;20274;-72
2022/05/08 02:14:49;;;;;;;4.10;3.70;;;13.50;99.90;;;;;;4927545;29;20294;-73
2022/05/08 02:17:14;;;;;;;4.50;3.33;;;13.50;99.90;;;;;;4928821;29;20190;-73
2022/05/08 02:19:40;;;;;;;5.33;3.70;;;13.40;99.90;;;;;;4927256;29;20541;-73
2022/05/08 02:22:05;;;;;;;2.87;2.67;;;13.50;99.90;;;;;;4929498;29;20183;-73
2022/05/08 02:24:31;;;;;;;3.70;3.40;;;13.50;99.90;;;;;;4926148;29;20195;-73
2022/05/08 02:26:56;;;;;;;3.50;3.20;;;13.60;99.90;;;;;;4929048;29;20258;-73
2022/05/08 02:29:22;;;;;;;3.33;3.03;;;13.60;99.90;;;;;;4929064;29;20285;-72
2022/05/08 02:31:47;;;;;;;3.60;3.27;;;13.70;99.90;;;;;;4926722;29;20199;-72
2022/05/08 02:34:13;;;;;;;3.40;3.10;;;13.70;99.90;;;;;;4940846;29;20197;-72
2022/05/08 02:36:38;;;;;;;5.07;3.20;;;13.70;99.90;;;;;;4917199;29;20746;-72
2022/05/08 02:39:04;;;;;;;4.93;3.50;;;13.70;99.90;;;;;;4926047;29;20385;-72
2022/05/08 02:41:29;;;;;;;3.57;3.23;;;13.70;99.90;;;;;;4928644;29;20355;-72
2022/05/08 02:43:55;;;;;;;3.40;3.13;;;13.70;99.90;;;;;;4927123;29;20218;-72
2022/05/08 02:46:20;;;;;;;3.50;3.03;;;13.70;99.90;;;;;;4915096;29;20195;-72
2022/05/08 02:48:46;;;;;;;3.40;3.10;;;13.70;99.90;;;;;;4927001;29;20572;-72
2022/05/08 02:51:11;;;;;;;4.43;3.63;;;13.70;99.90;;;;;;4928611;29;20650;-73
2022/05/08 02:53:37;;;;;;;4.47;3.57;;;13.70;99.90;;;;;;4926926;29;20265;-73
2022/05/08 02:58:47;;;;;;;6.50;3.67;;;13.50;99.90;;;;;;4924285;29;20249;-73
2022/05/08 03:01:12;;;;;;;3.97;3.60;;;13.40;99.90;;;;;;4928076;29;20245;-73
2022/05/08 03:03:38;;;;;;;4.63;3.80;;;13.50;99.90;;;;;;4926902;29;20203;-73
2022/05/08 03:06:04;;;;;;;3.83;3.47;;;13.70;99.90;;;;;;4928261;29;20195;-73
2022/05/08 03:08:30;;;;;;;3.33;3.13;;;13.70;99.90;;;;;;4925244;29;20893;-71
2022/05/08 03:13:42;;;;;;;5.20;3.63;;;13.70;99.90;;;;;;4926613;29;20258;-74
2022/05/08 03:16:10;;;;;;;4.67;3.40;;;13.70;99.90;;;;;;4927750;29;20902;-72
2022/05/08 03:18:38;;;;;;;3.90;3.23;;;13.70;99.90;;;;;;4926551;29;20313;-74
2022/05/08 03:21:04;;;;;;;4.00;3.57;;;13.70;99.90;;;;;;4927589;29;20225;-73
2022/05/08 03:23:31;;;;;;;3.97;3.67;;;13.60;99.90;;;;;;4926226;29;20206;-73
2022/05/08 03:25:57;;;;;;;3.90;3.67;;;13.50;99.90;;;;;;4928080;29;20215;-73
2022/05/08 03:28:22;;;;;;;5.83;4.07;;;13.20;99.90;;;;;;4926261;29;20199;-73
2022/05/08 03:30:48;;;;;;;4.40;3.43;;;13.30;99.90;;;;;;4928021;29;20221;-73
2022/05/08 03:33:14;;;;;;;5.93;3.83;;;13.30;99.90;;;;;;4924964;29;20210;-72
2022/05/08 03:35:40;;;;;;;6.30;3.60;;;13.20;99.90;;;;;;4927681;29;20692;-73
2022/05/08 03:38:07;;;;;;;5.03;3.20;;;13.20;99.90;;;;;;4926142;29;20653;-71
2022/05/08 03:40:33;;;;;;;4.67;4.07;;;13.20;99.90;;;;;;4928178;29;20571;-73
2022/05/08 03:42:59;;;;;;;4.40;3.70;;;13.10;99.90;;;;;;4926358;29;20206;-73
2022/05/08 03:45:25;;;;;;;5.13;3.40;;;13.20;99.90;;;;;;4927751;29;20194;-72
2022/05/08 03:47:51;;;;;;;5.20;3.30;;;13.20;99.90;;;;;;4926190;29;20207;-72
2022/05/08 03:50:18;;;;;;;3.40;3.17;;;13.10;99.90;;;;;;4927679;29;20228;-72
2022/05/08 03:52:43;;;;;;;4.83;3.37;;;12.90;99.90;;;;;;4926387;29;20625;-72
2022/05/08 03:55:09;;;;;;;4.23;3.47;;;13.00;99.90;;;;;;4927979;29;20199;-72
2022/05/08 03:57:34;;;;;;;6.03;3.23;;;13.00;99.90;;;;;;4925745;29;20198;-72
2022/05/08 04:00:00;;;;;;;5.30;2.87;;;13.00;99.90;;;;;;4927845;29;20210;-71
2022/05/08 04:02:26;;;;;;;5.10;2.93;;;13.00;99.90;;;;;;4925554;29;20692;-72
2022/05/08 04:04:51;;;;;;;4.67;3.20;;;13.00;99.90;;;;;;4927842;29;20223;-73
2022/05/08 04:07:17;;;;;;;3.93;3.20;;;12.90;99.90;;;;;;4927793;29;20197;-73
2022/05/08 04:09:42;;;;;;;5.20;3.50;;;12.90;99.90;;;;;;4933592;29;20537;-72
2022/05/08 04:12:08;;;;;;;4.87;4.17;;;12.90;99.90;;;;;;4933651;29;20296;-73
2022/05/08 04:14:33;;;;;;;5.93;3.03;;;12.90;99.90;;;;;;4938000;29;20209;-72
2022/05/08 04:16:59;;;;;;;4.87;3.70;;;12.80;99.90;;;;;;4928159;29;20220;-74
2022/05/08 04:19:25;;;;;;;6.63;3.77;;;12.80;99.90;;;;;;4928955;29;20203;-72
2022/05/08 04:24:16;;;;;;;6.10;2.97;;;12.80;99.90;;;;;;4929661;29;20246;-76
2022/05/08 04:24:36;;;;;;;7.53;3.67;;;12.80;99.90;;;;;;4928027;29;20238;-72
2022/05/08 04:27:01;;;;;;;5.33;3.53;;;12.80;99.90;;;;;;4929514;29;20255;-72
2022/05/08 04:29:27;;;;;;;5.23;3.67;;;12.80;99.90;;;;;;4927697;29;20308;-73
2022/05/08 04:31:52;;;;;;;5.63;3.03;;;12.70;99.90;;;;;;4933708;29;20250;-72
2022/05/08 04:34:18;;;;;;;9.17;3.70;;;12.70;99.90;;;;;;4931206;29;20630;-72
2022/05/08 04:36:43;;;;;;;7.37;2.87;;;12.70;99.90;;;;;;4923480;29;20218;-73
2022/05/08 04:39:08;;;;;;;3.87;3.30;;;12.70;99.90;;;;;;4930699;29;20217;-73
2022/05/08 04:41:34;;;;;;;8.67;2.93;;;12.70;99.90;;;;;;4928907;29;20729;-73
2022/05/08 04:44:00;;;;;;;4.50;3.30;;;12.70;99.90;;;;;;4930832;29;20206;-73
2022/05/08 04:46:25;;;;;;;6.10;2.90;;;12.80;99.90;;;;;;4928648;29;20203;-73
2022/05/08 04:48:51;;;;;;;5.23;2.80;;;12.80;99.90;;;;;;4930668;29;20225;-73
2022/05/08 04:51:16;;;;;;;5.97;3.10;;;12.80;99.90;;;;;;4928499;29;20265;-73
2022/05/08 04:53:42;;;;;;;6.03;3.00;;;12.80;99.90;;;;;;4930667;29;20206;-72
2022/05/08 04:56:07;;;;;;;5.47;3.03;;;12.80;99.90;;;;;;4920725;29;20983;-72
2022/05/08 04:58:33;;;;;;;4.97;3.23;;;12.80;99.90;;;;;;4930510;29;20199;-72
2022/05/08 05:00:58;;;;;;;8.20;3.63;;;12.80;99.90;;;;;;4928451;29;20223;-73
2022/05/08 05:03:25;;;;;;;8.50;3.40;;;12.80;99.90;;;;;;4930404;29;20206;-73
2022/05/08 05:05:50;;;;;;;7.23;2.97;;;12.70;99.90;;;;;;4928557;29;20917;-73
2022/05/08 05:08:18;;;;;;;7.90;3.50;;;12.60;99.90;;;;;;4930540;29;20250;-73
2022/05/08 05:10:43;;;;;;;6.77;3.87;;;12.60;99.90;;;;;;4928561;29;20206;-73
2022/05/08 05:13:09;;;;;;;6.93;3.87;;;12.50;99.90;;;;;;4930206;29;20191;-73
2022/05/08 05:15:34;;;;;;;7.70;3.43;;;12.50;99.90;;;;;;4928357;29;20298;-73
2022/05/08 05:18:01;;;;;;;4.27;2.43;;;12.60;99.90;;;;;;4927067;29;20613;-73
2022/05/08 05:20:29;;;;;;;6.77;2.80;;;12.70;99.90;;;;;;4928355;29;20709;-74
2022/05/08 05:22:54;;;;;;;7.30;2.67;;;12.80;99.90;;;;;;4930196;29;20532;-74
2022/05/08 05:25:20;;;;;;;5.83;4.07;;;12.90;99.90;;;;;;4925539;29;20254;-74
2022/05/08 05:27:46;;;;;;;5.80;2.83;;;12.90;99.90;;;;;;4930256;29;20262;-73
2022/05/08 05:30:12;;;;;;;9.20;3.40;;;12.90;99.90;;;;;;4927739;29;20195;-73
2022/05/08 05:32:39;;;;;;;7.97;3.53;;;13.00;99.90;;;;;;4930439;29;20191;-73
2022/05/08 05:35:05;;;;;;;9.93;3.50;;;12.90;99.90;;;;;;4926314;29;20599;-73
2022/05/08 05:37:31;;;;;;;7.67;3.00;;;12.90;99.90;;;;;;4929906;29;20189;-74
2022/05/08 05:39:56;;;;;;;10.63;2.87;;;12.90;99.90;;;;;;4929601;29;20197;-75
2022/05/08 05:42:23;;;;;;;17.03;3.50;;;13.00;99.90;;;;;;4927516;29;20226;-75
2022/05/08 05:44:49;;;;;;;5.83;3.00;;;12.80;99.90;;;;;;4929625;29;20207;-73
2022/05/08 05:49:58;;;;;;;5.40;2.73;;;12.90;99.90;;;;;;4919802;29;20860;-74
2022/05/08 05:52:24;;;;;;;4.53;3.07;;;13.00;99.90;;;;;;4927657;29;20199;-74
2022/05/08 05:54:49;;;;;;;4.80;2.93;;;13.20;99.90;;;;;;4929474;29;20226;-74
2022/05/08 05:57:15;;;;;;;6.80;3.37;;;13.30;99.90;;;;;;4927641;29;20222;-73
2022/05/08 05:59:40;;;;;;;6.40;3.40;;;13.30;99.90;;;;;;4929199;29;20566;-73
2022/05/08 06:02:07;;;;;;;7.83;3.50;;;13.40;99.90;;;;;;4925397;29;20254;-73
2022/05/08 06:04:33;;;;;;;7.37;3.60;;;13.60;99.90;;;;;;4929187;29;20193;-74
2022/05/08 06:06:58;;;;;;;8.40;3.30;;;13.80;99.90;;;;;;4927261;29;20273;-74
2022/05/08 06:09:24;;;;;;;8.03;3.47;;;14.00;99.90;;;;;;4929048;29;20253;-73
2022/05/08 06:11:49;;;;;;;6.33;2.93;;;14.20;99.90;;;;;;4927215;29;20619;-74
2022/05/08 06:14:15;;;;;;;8.13;3.63;;;14.20;99.90;;;;;;4929204;29;20214;-74
2022/05/08 06:16:42;;;;;;;8.70;3.77;;;14.40;99.90;;;;;;4926897;29;20784;-73
2022/05/08 06:19:08;;;;;;;8.07;3.30;;;14.60;99.90;;;;;;4929098;29;20214;-73
2022/05/08 06:21:33;;;;;;;5.37;2.90;;;14.60;99.90;;;;;;4927538;29;20241;-73
2022/05/08 06:23:59;;;;;;;12.50;4.00;;;14.60;99.90;;;;;;4929234;29;20199;-73
2022/05/08 06:26:25;;;;;;;5.47;3.97;;;14.70;99.90;;;;;;4927052;29;20764;-73
2022/05/08 06:28:50;;;;;;;5.03;3.03;;;14.80;99.90;;;;;;4914705;28;20210;-73
2022/05/08 06:31:17;;;;;;;9.83;3.80;;;14.70;99.90;;;;;;4927041;29;20206;-74
2022/05/08 06:33:43;;;;;;;7.43;3.03;;;14.60;99.90;;;;;;4928905;29;20253;-75
2022/05/08 06:36:09;;;;;;;12.33;3.27;;;14.50;99.90;;;;;;4926572;29;20340;-74
2022/05/08 06:38:34;;;;;;;5.30;3.17;;;14.70;99.90;;;;;;4928710;29;20385;-74
2022/05/08 06:41:00;;;;;;;7.87;2.70;;;14.50;99.90;;;;;;4926456;29;20272;-75
2022/05/08 06:43:25;;;;;;;9.13;3.07;;;14.20;99.90;;;;;;4922634;29;20293;-74
2022/05/08 06:45:51;;;;;;;7.67;3.67;;;14.20;99.90;;;;;;4914729;29;20851;-74
2022/05/08 06:48:16;;;;;;;6.47;3.30;;;14.40;99.90;;;;;;4928493;29;20282;-74
2022/05/08 06:50:43;;;;;;;6.63;3.97;;;14.20;99.90;;;;;;4923788;29;20230;-75
2022/05/08 06:53:08;;;;;;;5.93;3.23;;;14.10;99.90;;;;;;4928578;29;20198;-74
2022/05/08 06:55:34;;;;;;;6.23;3.00;;;14.20;99.90;;;;;;4926463;29;20198;-75
2022/05/08 06:58:00;;;;;;;3.27;2.60;;;14.10;99.90;;;;;;4928277;29;20202;-74
2022/05/08 07:03:10;;;;;;;8.87;3.30;;;13.90;99.90;;;;;;4928778;29;20237;-74
2022/05/08 07:05:40;;;;;;;6.83;3.77;;;14.10;99.90;;;;;;4926900;29;20911;-72
2022/05/08 07:08:06;;;;;;;4.57;2.87;;;14.10;99.90;;;;;;4928762;29;20215;-73
2022/05/08 07:10:32;;;;;;;11.93;3.83;;;14.10;99.90;;;;;;4926024;29;20261;-73
2022/05/08 07:12:57;;;;;;;7.00;3.43;;;14.20;99.90;;;;;;4928397;29;20194;-73
2022/05/08 07:15:23;;;;;;;14.43;4.07;;;14.10;99.90;;;;;;4926205;29;20218;-74
2022/05/08 07:17:49;;;;;;;8.47;3.10;;;14.40;99.90;;;;;;4927819;29;20325;-74
2022/05/08 07:20:14;;;;;;;8.53;3.93;;;14.30;99.90;;;;;;4925973;29;20206;-73
2022/05/08 07:22:40;;;;;;;6.57;2.87;;;14.20;99.90;;;;;;4928282;29;20630;-73
2022/05/08 07:25:06;;;;;;;12.47;4.33;;;14.30;99.90;;;;;;4926016;29;20198;-73
2022/05/08 07:27:36;;;;;;;8.33;3.13;;;14.40;99.90;;;;;;4928526;29;20254;-73
2022/05/08 07:30:05;;;;;;;6.07;2.87;;;14.40;99.90;;;;;;4928072;29;20195;-73
2022/05/08 07:32:33;;;;;;;10.37;3.70;;;14.50;99.90;;;;;;4914425;29;20673;-73
2022/05/08 07:37:43;;;;;;;7.97;3.10;;;14.50;99.90;;;;;;4919730;29;20197;-73
2022/05/08 07:40:12;;;;;;;12.53;4.17;;;14.70;99.90;;;;;;4925827;29;20226;-72
2022/05/08 07:42:38;;;;;;;5.73;2.60;;;14.70;99.90;;;;;;4930873;29;20224;-74
2022/05/08 07:45:05;;;;;;;8.67;3.10;;;14.60;99.90;;;;;;4929622;29;20213;-72
2022/05/08 07:47:31;;;;;;;8.63;2.97;;;14.40;99.90;;;;;;4931468;29;20346;-74
2022/05/08 07:49:56;;;;;;;7.47;3.13;;;14.50;99.20;;;;;;4931915;29;20318;-73
2022/05/08 07:52:22;;;;;;;6.10;3.50;;;14.50;99.90;;;;;;4929640;29;20775;-72
2022/05/08 07:54:47;;;;;;;11.63;3.50;;;14.70;99.90;;;;;;4931839;29;20250;-73
2022/05/08 07:57:13;;;;;;;11.33;3.43;;;14.60;99.70;;;;;;4929990;29;20741;-72
2022/05/08 07:59:39;;;;;;;5.00;2.93;;;14.80;99.80;;;;;;4931200;29;20230;-71
2022/05/08 08:02:04;;;;;;;12.40;4.80;;;14.80;99.30;;;;;;4928785;29;20622;-70
2022/05/08 08:04:30;;;;;;;6.57;2.93;;;14.40;99.80;;;;;;4930779;29;20191;-70
2022/05/08 08:06:55;;;;;;;9.00;3.53;;;14.40;99.70;;;;;;4929877;29;20728;-85
2022/05/08 08:09:21;;;;;;;9.83;3.97;;;14.40;99.70;;;;;;4930331;29;20519;-65
2022/05/08 08:11:47;;;;;;;10.50;3.47;;;14.70;99.80;;;;;;4929140;29;20581;-64
2022/05/08 08:14:13;;;;;;;9.03;3.80;;;14.90;99.80;;;;;;4931010;29;20386;-64
2022/05/08 08:16:39;;;;;;;6.97;3.03;;;15.00;99.90;;;;;;4928773;29;20214;-66
2022/05/08 08:19:05;;;;;;;8.60;3.30;;;15.20;99.50;;;;;;4930740;29;20187;-67
2022/05/08 08:21:30;;;;;;;6.90;3.27;;;15.30;99.10;;;;;;4928952;29;20725;-62
2022/05/08 08:23:56;;;;;;;9.37;3.10;;;15.30;99.80;;;;;;4930630;29;20262;-67
2022/05/08 08:26:21;;;;;;;13.27;3.70;;;15.40;99.70;;;;;;4926868;29;20211;-68
2022/05/08 08:28:47;;;;;;;11.70;4.13;;;15.20;99.90;;;;;;4930776;29;20187;-71
2022/05/08 08:31:13;;;;;;;8.23;3.33;;;15.10;99.90;;;;;;4926614;29;20203;-65
2022/05/08 08:33:40;;;;;;;9.60;3.53;;;15.20;99.90;;;;;;4931142;29;20196;-65
2022/05/08 08:36:07;;;;;;;9.13;3.43;;;15.20;99.90;;;;;;4929838;29;20722;-65
2022/05/08 08:38:33;;;;;;;12.63;3.50;;;15.40;99.90;;;;;;4928413;29;20208;-65
2022/05/08 08:41:04;;;;;;;7.33;4.20;;;15.60;99.90;;;;;;4930079;29;21009;-66
2022/05/08 08:49:08;;;;;;;8.20;3.20;;;15.90;99.90;;;;;;4930090;29;20206;-65
2022/05/08 08:51:34;;;;;;;7.57;3.10;;;15.90;99.90;;;;;;4923175;29;20208;-66
2022/05/08 08:54:00;;;;;;;13.47;4.63;;;16.10;99.50;;;;;;4929908;29;20203;-66
2022/05/08 08:56:25;;;;;;;11.20;3.40;;;16.10;99.30;;;;;;4928327;29;20270;-64
2022/05/08 08:58:51;;;;;;;4.57;3.30;;;16.20;99.20;;;;;;4930701;29;20214;-66
2022/05/08 09:01:17;;;;;;;9.80;3.23;;;16.20;99.40;;;;;;4927232;29;20207;-64
2022/05/08 09:03:42;;;;;;;3.63;2.40;;;16.30;99.30;;;;;;4929894;29;20180;-63
2022/05/08 09:06:09;;;;;;;7.10;2.40;;;16.50;98.00;;;;;;4929365;29;20183;-64
2022/05/08 09:08:35;;;;;;;5.50;2.20;;;16.50;97.10;;;;;;4927788;29;20262;-63
2022/05/08 09:11:01;;;;;;;6.03;2.87;;;16.60;97.30;;;;;;4929662;29;20299;-64
2022/05/08 09:13:28;;;;;;;3.73;2.40;;;16.70;97.00;;;;;;4927968;29;20281;-65
2022/05/08 09:16:00;;;;;;;5.87;2.63;;;16.60;97.40;;;;;;4929707;29;20235;-64
2022/05/08 09:18:26;;;;;;;6.20;2.40;;;16.60;96.90;;;;;;4926317;29;20217;-64
2022/05/08 09:20:57;;;;;;;6.70;1.93;;;16.70;97.00;;;;;;4927177;29;20211;-65
2022/05/08 09:23:23;;;;;;;6.60;3.00;;;16.70;96.20;;;;;;4925346;29;20214;-64
2022/05/08 09:26:00;;;;;;;4.83;2.43;;;16.80;96.40;;;;;;4929151;29;20215;-64
2022/05/08 09:28:42;;;;;;;8.17;2.03;;;17.00;96.60;;;;;;4925912;29;20219;-69
2022/05/08 09:31:15;;;;;;;9.13;2.37;;;17.10;94.40;;;;;;4926007;29;20197;-66
2022/05/08 09:33:42;;;;;;;8.10;1.57;;;17.20;94.50;;;;;;4928863;29;20617;-66
2022/05/08 09:36:10;;;;;;;6.60;2.33;;;17.30;93.20;;;;;;4927437;29;20231;-66
2022/05/08 09:38:55;;;;;;;7.57;2.53;;;17.10;93.10;;;;;;4928272;29;20235;-66
2022/05/08 09:41:22;;;;;;;4.67;1.83;;;17.40;92.20;;;;;;4924786;29;20224;-67
2022/05/08 09:43:49;;;;;;;5.97;2.40;;;17.30;93.50;;;;;;4926447;29;20195;-67
2022/05/08 09:46:15;;;;;;;8.17;2.40;;;17.20;93.10;;;;;;4926748;29;20203;-65
2022/05/08 09:48:41;;;;;;;5.17;2.37;;;17.30;93.10;;;;;;4928981;29;20211;-65
2022/05/08 09:51:08;;;;;;;4.10;1.43;;;17.20;91.20;;;;;;4927117;29;20213;-66
2022/05/08 09:53:36;;;;;;;6.63;2.00;;;17.40;90.90;;;;;;4928828;29;20212;-64
2022/05/08 09:56:04;;;;;;;6.83;2.60;;;17.50;87.10;;;;;;4926861;29;20571;-62
2022/05/08 09:58:31;;;;;;;8.33;2.43;;;17.50;90.00;;;;;;4929027;29;21102;-63
2022/05/08 10:00:56;;;;;;;5.63;2.00;;;17.50;90.70;;;;;;4926614;29;20230;-63
2022/05/08 10:03:23;;;;;;;6.03;2.70;;;17.40;87.20;;;;;;4928598;29;20191;-64
2022/05/08 10:05:49;;;;;;;5.77;2.60;;;17.50;88.60;;;;;;4926368;29;20281;-64
2022/05/08 10:08:17;;;;;;;6.47;2.53;;;17.60;89.10;;;;;;4928482;29;20184;-64
2022/05/08 10:14:00;;;;;;;6.53;2.40;;;17.50;87.70;;;;;;4918931;29;20253;-66
2022/05/08 10:16:46;;;;;;;13.60;2.57;;;17.70;86.40;;;;;;4922071;29;20742;-73
2022/05/08 10:19:23;;;;;;;2.83;1.80;;;17.90;88.00;;;;;;4928389;29;20188;-72
2022/05/08 10:22:05;;;;;;;8.57;2.33;;;18.10;84.60;;;;;;4909932;29;20202;-72
2022/05/08 10:24:32;;;;;;;6.50;1.87;;;18.00;82.50;;;;;;4924770;29;20205;-72
2022/05/08 10:27:29;;;;;;;7.53;2.40;;;18.20;84.60;;;;;;4927827;29;20373;-72
2022/05/08 10:29:54;;;;;;;6.97;2.00;;;18.30;84.20;;;;;;4915430;29;20200;-72
2022/05/08 10:32:32;;;;;;;5.80;1.90;;;18.20;83.90;;;;;;4928019;29;20190;-72
2022/05/08 10:35:09;;;;;;;8.30;2.33;;;18.40;82.00;;;;;;4926129;29;20250;-70
2022/05/08 10:37:36;;;;;;;9.23;2.30;;;18.50;81.50;;;;;;4927492;29;20178;-71
2022/05/08 10:40:02;;;;;;;6.27;1.93;;;18.60;80.70;;;;;;4925494;29;20202;-70
2022/05/08 10:42:28;;;;;;;5.20;1.73;;;18.60;81.70;;;;;;4927243;29;20192;-69
2022/05/08 10:44:54;;;;;;;7.57;2.53;;;18.70;78.70;;;;;;4925197;29;20221;-69
2022/05/08 10:47:32;;;;;;;5.27;1.50;;;18.60;78.60;;;;;;4927107;29;20599;-68
2022/05/08 10:50:02;;;;;;;4.73;2.00;;;18.50;74.70;;;;;;4925731;29;20207;-70
2022/05/08 10:52:29;;;;;;;4.73;1.83;;;18.50;74.60;;;;;;4926708;29;20903;-69
2022/05/08 10:55:03;;;;;;;6.07;2.13;;;18.60;75.10;;;;;;4925575;29;20205;-75
2022/05/08 10:57:34;;;;;;;5.80;2.03;;;19.10;75.10;;;;;;4926593;29;20650;-71
2022/05/08 11:00:00;;;;;;;5.67;2.23;;;19.60;71.40;;;;;;4924542;29;20209;-70
2022/05/08 11:02:51;;;;;;;7.37;1.90;;;19.80;71.80;;;;;;4926738;29;20201;-69
2022/05/08 11:05:19;;;;;;;4.80;2.10;;;19.90;70.60;;;;;;4916978;29;20210;-69
2022/05/08 11:07:59;;;;;;;6.07;2.27;;;19.80;71.60;;;;;;4925841;29;20277;-71
2022/05/08 11:10:29;;;;;;;3.43;1.90;;;20.10;71.90;;;;;;4914258;29;20935;-69
2022/05/08 11:12:59;;;;;;;11.43;3.03;;;20.40;72.90;;;;;;4907764;29;20281;-69
2022/05/08 11:15:32;;;;;;;4.20;2.17;;;20.50;71.60;;;;;;4924132;29;20373;-68
2022/05/08 11:18:08;;;;;;;11.43;2.80;;;20.60;70.00;;;;;;4924221;29;21003;-68
2022/05/08 11:20:38;;;;;;;7.73;3.20;;;21.40;65.40;;;;;;4919086;29;20229;-69
2022/05/08 11:23:04;;;;;;;7.20;2.03;;;21.80;61.70;;;;;;4913502;29;20225;-69
2022/05/08 11:25:31;;;;;;;5.70;2.30;;;22.10;57.50;;;;;;4924358;29;20210;-70
2022/05/08 11:27:58;;;;;;;3.93;1.60;;;22.10;57.60;;;;;;4925315;29;20725;-71
2022/05/08 11:30:32;;;;;;;7.40;2.43;;;21.90;57.20;;;;;;4923360;29;20219;-69
2022/05/08 11:36:05;;;;;;;4.38;2.00;;;22.40;53.30;;;;;;4889875;29;991006;-68
2022/05/08 11:38:59;;;;;;;3.95;1.30;;;22.50;52.80;;;;;;4925453;29;20194;-68
2022/05/08 11:41:27;;;;;;;4.82;1.85;;;22.10;51.80;;;;;;4922463;29;20260;-71
2022/05/08 11:43:55;;;;;;;4.65;1.90;;;22.10;51.00;;;;;;4925723;29;20199;-70
2022/05/08 11:46:36;;;;;;;5.38;1.85;;;22.70;52.40;;;;;;4923691;29;20210;-70
2022/05/08 11:49:19;;;;;;;3.45;1.92;;;23.10;49.60;;;;;;4925817;29;20179;-70
2022/05/08 11:51:46;;;;;;;6.88;2.88;;;23.30;49.80;;;;;;4924358;29;20191;-69
2022/05/08 11:54:22;;;;;;;5.53;2.00;;;23.20;48.40;;;;;;4926183;29;20660;-69
2022/05/08 11:56:51;;;;;;;4.75;1.85;;;23.20;49.60;;;;;;4927358;29;20192;-68
2022/05/08 11:59:22;;;;;;;5.13;2.00;;;23.80;46.60;;;;;;4926048;29;20240;-68
2022/05/08 12:01:52;;;;;;;9.93;2.13;;;23.70;47.10;;;;;;4915662;29;20665;-68
2022/05/08 12:04:32;;;;;;;4.35;2.03;;;24.10;47.00;;;;;;4922601;29;20293;-68
2022/05/08 12:07:05;;;;;;;2.65;1.55;;;24.20;44.10;;;;;;4926316;29;20252;-69
2022/05/08 12:09:32;;;;;;;4.05;2.20;;;24.00;44.40;;;;;;4923238;29;20554;-70
2022/05/08 12:12:20;;;;;;;5.78;1.90;;;24.70;43.20;;;;;;4926740;29;20654;-70
2022/05/08 12:14:45;;;;;;;7.70;1.92;;;24.30;45.30;;;;;;4924912;29;20258;-68
2022/05/08 12:17:12;;;;;;;5.32;2.15;;;24.60;43.50;;;;;;4926537;29;20191;-71
2022/05/08 12:19:49;;;;;;;4.80;2.55;;;24.50;42.80;;;;;;4925046;29;20214;-71
2022/05/08 12:22:33;;;;;;;9.52;2.50;;;25.30;41.20;;;;;;4926940;29;20269;-71
2022/05/08 12:24:58;;;;;;;6.30;2.25;;;25.40;40.50;;;;;;4912068;29;20227;-71
2022/05/08 12:27:24;;;;;;;3.35;2.25;;;25.50;41.60;;;;;;4928011;29;20198;-72
2022/05/08 12:29:50;;;;;;;2.83;2.05;;;25.20;42.80;;;;;;4915421;29;20213;-71
2022/05/08 12:32:17;;;;;;;5.18;2.42;;;25.60;41.90;;;;;;4930968;29;20715;-69
2022/05/08 12:34:44;;;;;;;6.78;3.78;;;25.60;41.20;;;;;;4926475;29;20234;-69
2022/05/08 12:37:11;;;;;;;5.10;2.80;;;25.80;41.30;;;;;;4930562;29;20717;-76
2022/05/08 12:39:40;;;;;;;4.43;2.22;;;26.20;39.90;;;;;;4928573;29;20709;-75
2022/05/08 12:42:06;;;;;;;5.47;2.13;;;25.80;40.30;;;;;;4927809;29;20222;-75
2022/05/08 12:44:36;;;;;;;9.13;2.08;;;25.70;41.20;;;;;;4928145;29;20186;-75
2022/05/08 12:47:04;;;;;;;5.50;2.78;;;26.40;40.40;;;;;;4930082;29;20179;-72
2022/05/08 12:49:29;;;;;;;4.63;2.88;;;27.10;36.70;;;;;;4927821;29;20195;-72
2022/05/08 12:51:55;;;;;;;5.72;2.28;;;27.60;36.80;;;;;;4930128;29;20263;-74
2022/05/08 12:54:20;;;;;;;5.43;2.03;;;28.10;35.20;;;;;;4927996;29;20202;-73
2022/05/08 12:56:46;;;;;;;4.70;2.33;;;28.30;34.60;;;;;;4926875;29;20187;-73
2022/05/08 13:01:55;;;;;;;4.28;2.47;;;29.00;32.90;;;;;;4927640;29;20976;-73
2022/05/08 13:04:21;;;;;;;4.65;1.48;;;29.00;31.30;;;;;;4927431;29;20226;-74
2022/05/08 13:06:47;;;;;;;6.82;2.25;;;28.80;31.10;;;;;;4929974;29;20190;-74
2022/05/08 13:09:13;;;;;;;2.28;2.03;;;28.60;30.90;;;;;;4930016;29;20216;-80
2022/05/08 13:11:38;;;;;;;3.55;1.98;;;28.50;30.70;;;;;;4928391;29;20319;-73
2022/05/08 13:14:05;;;;;;;3.20;2.03;;;28.90;30.50;;;;;;4929565;29;20297;-75
2022/05/08 13:16:32;;;;;;;8.70;1.75;;;28.70;31.30;;;;;;4927612;29;20245;-75